Time;durP1;ratioP1;P1;durP2;ratioP2;P2;SDS_P1;SDS_P2;PMS_P1;PMS_P2;Temp;Humidity;BMP_temperature;BMP_pressure;BME280_temperature;BME280_humidity;BME280_pressure;Samples;Min_cycle;Max_cycle;Signal;HPM_P1;HPM_P2
2023/07/19 00:01:28;;;;;;;5.65;2.60;;;;;;;16.20;85.72;101340.97;5008299;28;20042;-76
2023/07/19 00:03:53;;;;;;;4.22;2.40;;;;;;;16.20;85.52;101334.81;5024448;28;20490;-74
2023/07/19 00:06:18;;;;;;;4.47;2.60;;;;;;;16.22;85.39;101339.00;5032745;28;20036;-75
2023/07/19 00:08:44;;;;;;;5.15;2.83;;;;;;;16.18;85.80;101334.94;5031961;28;20084;-75
2023/07/19 00:11:09;;;;;;;5.22;2.33;;;;;;;16.18;85.69;101332.28;5030889;28;20064;-75
2023/07/19 00:13:35;;;;;;;4.32;2.67;;;;;;;16.10;86.07;101336.63;5032615;28;20980;-75
2023/07/19 00:16:00;;;;;;;6.93;2.70;;;;;;;16.08;86.20;101342.06;5031373;28;20482;-75
2023/07/19 00:18:25;;;;;;;5.15;2.50;;;;;;;16.04;86.42;101335.34;5032342;28;20381;-75
2023/07/19 00:20:51;;;;;;;6.22;2.95;;;;;;;16.03;86.67;101332.84;5030291;28;20045;-75
2023/07/19 00:23:16;;;;;;;7.40;2.40;;;;;;;16.06;86.33;101325.44;5030192;28;20075;-75
2023/07/19 00:25:42;;;;;;;3.42;2.30;;;;;;;16.08;86.40;101328.78;5013878;28;20033;-74
2023/07/19 00:28:10;;;;;;;5.65;2.58;;;;;;;16.02;86.82;101325.84;5025813;28;20026;-74
2023/07/19 00:30:36;;;;;;;6.55;2.30;;;;;;;15.97;87.04;101318.25;5025270;28;20036;-76
2023/07/19 00:33:02;;;;;;;6.28;2.67;;;;;;;15.91;87.50;101313.50;5032667;28;20207;-76
2023/07/19 00:35:28;;;;;;;5.75;2.58;;;;;;;15.96;87.44;101311.28;5031211;28;20037;-76
2023/07/19 00:37:53;;;;;;;7.85;2.67;;;;;;;15.91;87.26;101313.50;5011824;28;20034;-74
2023/07/19 00:40:19;;;;;;;4.75;2.97;;;;;;;15.92;86.91;101309.88;5027274;28;20533;-74
2023/07/19 00:42:44;;;;;;;5.35;2.63;;;;;;;15.90;86.98;101306.53;5030284;28;20091;-74
2023/07/19 00:45:09;;;;;;;4.57;2.65;;;;;;;15.95;86.64;101304.28;5013227;28;20112;-74
2023/07/19 00:47:37;;;;;;;4.72;2.50;;;;;;;15.92;86.43;101304.56;5032592;28;20024;-75
2023/07/19 00:50:03;;;;;;;5.43;2.50;;;;;;;15.87;86.85;101290.88;5013085;28;20034;-75
2023/07/19 00:52:29;;;;;;;6.80;2.90;;;;;;;15.84;87.17;101299.94;5012078;28;20185;-75
2023/07/19 00:54:55;;;;;;;4.85;2.72;;;;;;;15.83;86.87;101300.94;5004999;28;20026;-75
2023/07/19 00:57:20;;;;;;;4.68;2.65;;;;;;;15.75;87.17;101298.13;5017042;28;20068;-75
2023/07/19 00:59:45;;;;;;;5.75;2.60;;;;;;;15.75;86.98;101292.81;5030323;28;20032;-76
2023/07/19 01:02:12;;;;;;;5.13;2.97;;;;;;;15.74;86.47;101295.59;5031240;28;20049;-76
2023/07/19 01:04:38;;;;;;;5.40;2.90;;;;;;;15.68;86.68;101301.47;5029925;28;20036;-76
2023/07/19 01:07:03;;;;;;;4.50;2.90;;;;;;;15.69;86.98;101297.84;5030275;28;20017;-76
2023/07/19 01:09:29;;;;;;;5.20;2.47;;;;;;;15.70;86.39;101292.38;5010734;28;20565;-75
2023/07/19 01:11:54;;;;;;;8.95;3.22;;;;;;;15.70;86.51;101294.19;5031049;28;20096;-75
2023/07/19 01:14:35;;;;;;;5.07;2.70;;;;;;;15.66;86.72;101285.69;5013190;28;20041;-75
2023/07/19 01:17:03;;;;;;;5.50;3.00;;;;;;;15.58;87.26;101291.63;5030408;28;20488;-75
2023/07/19 01:19:29;;;;;;;4.97;3.15;;;;;;;15.59;86.94;101288.00;5029669;28;20432;-75
2023/07/19 01:21:55;;;;;;;6.45;3.40;;;;;;;15.52;87.35;101286.00;5031566;28;20074;-75
2023/07/19 01:24:21;;;;;;;4.05;2.80;;;;;;;15.58;87.50;101282.84;5030550;28;20504;-76
2023/07/19 01:26:47;;;;;;;5.25;3.40;;;;;;;15.61;86.94;101285.25;5025712;28;20029;-75
2023/07/19 01:29:12;;;;;;;5.50;3.05;;;;;;;15.56;87.56;101274.97;5008358;28;20109;-76
2023/07/19 01:31:38;;;;;;;4.85;3.00;;;;;;;15.59;87.73;101266.78;5031668;28;20029;-75
2023/07/19 01:34:04;;;;;;;5.03;2.95;;;;;;;15.61;87.48;101269.34;5011389;28;20508;-75
2023/07/19 01:36:29;;;;;;;7.97;3.03;;;;;;;15.51;87.71;101265.75;5013096;28;20068;-75
2023/07/19 01:38:55;;;;;;;4.47;2.80;;;;;;;15.60;87.63;101263.16;5031167;28;20100;-75
2023/07/19 01:41:22;;;;;;;8.10;3.20;;;;;;;15.59;87.72;101266.78;5030754;28;20108;-74
2023/07/19 01:43:48;;;;;;;6.13;3.22;;;;;;;15.62;87.46;101266.53;5028593;28;20095;-74
2023/07/19 01:46:13;;;;;;;6.85;3.35;;;;;;;15.59;87.40;101260.63;5028162;28;20033;-75
2023/07/19 01:48:39;;;;;;;8.32;3.30;;;;;;;15.59;87.42;101266.78;5029659;28;20121;-75
2023/07/19 01:51:05;;;;;;;5.22;3.40;;;;;;;15.59;87.57;101271.25;5030509;28;20037;-75
2023/07/19 01:53:30;;;;;;;7.22;3.35;;;;;;;15.58;87.36;101265.09;5028425;28;20025;-76
2023/07/19 01:55:56;;;;;;;6.25;3.20;;;;;;;15.61;87.66;101264.88;5023076;28;20129;-76
2023/07/19 01:58:21;;;;;;;5.57;3.38;;;;;;;15.56;87.67;101277.63;5011326;28;20053;-75
2023/07/19 02:00:46;;;;;;;5.00;3.35;;;;;;;15.54;87.58;101266.31;5020249;28;20053;-75
2023/07/19 02:03:12;;;;;;;7.55;3.65;;;;;;;15.45;87.76;101267.13;5030355;28;20033;-75
2023/07/19 02:05:37;;;;;;;6.78;3.70;;;;;;;15.42;87.89;101270.06;5029752;28;20032;-75
2023/07/19 02:08:03;;;;;;;4.65;3.10;;;;;;;15.47;87.92;101272.31;5029534;28;20036;-75
2023/07/19 02:10:29;;;;;;;4.70;3.40;;;;;;;15.38;88.46;101263.34;5028291;28;20026;-75
2023/07/19 02:12:54;;;;;;;9.43;4.53;;;;;;;15.32;88.88;101269.19;5030780;28;20393;-75
2023/07/19 02:15:20;;;;;;;5.00;3.20;;;;;;;15.35;88.91;101260.97;5026172;28;20033;-76
2023/07/19 02:17:45;;;;;;;6.95;3.50;;;;;;;15.38;88.95;101260.69;5011045;28;20029;-75
2023/07/19 02:20:12;;;;;;;6.75;3.85;;;;;;;15.28;89.73;101246.56;5011645;28;20187;-75
2023/07/19 02:22:39;;;;;;;6.32;3.80;;;;;;;15.31;89.09;101241.84;5010886;28;20056;-74
2023/07/19 02:25:05;;;;;;;5.75;3.88;;;;;;;15.36;89.04;101249.38;5000840;28;20041;-74
2023/07/19 02:27:31;;;;;;;8.00;3.70;;;;;;;15.31;89.04;101257.75;5025473;28;20033;-75
2023/07/19 02:29:56;;;;;;;7.90;4.22;;;;;;;15.30;88.68;101250.78;5024740;28;20022;-75
2023/07/19 02:32:22;;;;;;;5.28;4.05;;;;;;;15.30;89.33;101255.22;4992810;28;20026;-75
2023/07/19 02:34:47;;;;;;;6.50;4.20;;;;;;;15.29;89.88;101250.91;5011155;28;20033;-75
2023/07/19 02:37:12;;;;;;;7.22;4.38;;;;;;;15.26;89.82;101244.06;4993852;28;20030;-75
2023/07/19 02:39:44;;;;;;;6.50;3.90;;;;;;;15.30;89.26;101249.94;5030326;28;20025;-75
2023/07/19 02:42:09;;;;;;;4.63;3.95;;;;;;;15.28;89.89;101243.94;5028627;28;20025;-75
2023/07/19 02:44:34;;;;;;;4.97;3.92;;;;;;;15.27;90.39;101247.56;5029634;28;20021;-75
2023/07/19 02:47:00;;;;;;;5.78;3.60;;;;;;;15.34;90.27;101251.34;5011930;28;20021;-75
2023/07/19 02:49:25;;;;;;;7.28;4.50;;;;;;;15.31;90.85;101256.91;5026817;28;20556;-75
2023/07/19 02:51:51;;;;;;;5.60;3.80;;;;;;;15.35;90.90;101260.97;5027353;28;20029;-84
2023/07/19 02:54:24;;;;;;;5.15;4.00;;;;;;;15.33;90.46;101254.97;5029666;28;20098;-76
2023/07/19 02:56:49;;;;;;;7.55;4.20;;;;;;;15.38;90.50;101258.03;5018339;28;20029;-76
2023/07/19 02:59:17;;;;;;;7.72;4.30;;;;;;;15.36;91.00;101254.69;5027969;28;20076;-76
2023/07/19 03:01:43;;;;;;;5.32;4.15;;;;;;;15.36;91.70;101247.56;5027695;28;20053;-75
2023/07/19 03:04:08;;;;;;;6.88;4.38;;;;;;;15.35;90.79;101258.31;5011739;28;20470;-75
2023/07/19 03:06:34;;;;;;;7.85;4.50;;;;;;;15.37;92.58;101251.06;5030071;28;20477;-74
2023/07/19 03:08:59;;;;;;;8.40;4.38;;;;;;;15.38;93.40;101247.44;5009816;28;20462;-74
2023/07/19 03:11:25;;;;;;;8.10;4.22;;;;;;;15.37;94.19;101256.38;5027092;28;20036;-74
2023/07/19 03:13:50;;;;;;;6.53;4.40;;;;;;;15.33;95.29;101260.25;5030155;28;20029;-74
2023/07/19 03:16:21;;;;;;;6.80;4.63;;;;;;;15.32;95.36;101261.25;5029883;28;20506;-74
2023/07/19 03:18:47;;;;;;;6.20;4.40;;;;;;;15.28;95.57;101259.84;5025336;28;20034;-74
2023/07/19 03:21:12;;;;;;;7.72;4.22;;;;;;;15.29;95.71;101258.84;5028461;28;20053;-75
2023/07/19 03:23:38;;;;;;;7.90;4.68;;;;;;;15.31;96.44;101256.91;5030120;28;20021;-75
2023/07/19 03:26:03;;;;;;;8.70;4.50;;;;;;;15.27;96.89;101264.28;5019888;28;20068;-75
2023/07/19 03:28:30;;;;;;;8.88;4.88;;;;;;;15.26;97.25;101259.97;5001258;28;20373;-75
2023/07/19 03:30:58;;;;;;;8.88;5.00;;;;;;;15.29;98.93;101270.31;5021937;28;20029;-75
2023/07/19 03:33:25;;;;;;;7.55;5.15;;;;;;;15.28;99.17;101273.09;5028592;28;20045;-75
2023/07/19 03:36:00;;;;;;;6.55;4.30;;;;;;;15.33;98.74;101271.72;5029006;28;20033;-75
2023/07/19 03:38:25;;;;;;;7.55;4.97;;;;;;;15.32;99.81;101264.72;5031185;28;20018;-74
2023/07/19 03:40:50;;;;;;;7.88;4.90;;;;;;;15.34;99.12;101265.44;5013247;28;20032;-74
2023/07/19 03:43:16;;;;;;;8.75;4.82;;;;;;;15.32;98.22;101263.88;5010596;28;20437;-74
2023/07/19 03:45:42;;;;;;;8.32;4.47;;;;;;;15.34;98.96;101273.38;5013398;28;20104;-74
2023/07/19 03:48:10;;;;;;;6.28;4.70;;;;;;;15.35;99.06;101263.63;5016013;28;20022;-74
2023/07/19 03:50:36;;;;;;;8.15;4.80;;;;;;;15.35;99.24;101267.09;5033529;28;20101;-74
2023/07/19 03:53:01;;;;;;;6.07;4.60;;;;;;;15.35;100.00;101266.28;5011296;28;20076;-74
2023/07/19 03:55:27;;;;;;;7.25;4.70;;;;;;;15.41;99.80;101265.72;5021232;28;20029;-74
2023/07/19 03:57:52;;;;;;;8.43;5.25;;;;;;;15.38;99.71;101268.66;5017512;28;20030;-74
2023/07/19 04:00:18;;;;;;;5.80;5.20;;;;;;;15.41;99.55;101272.84;5004676;28;20524;-74
2023/07/19 04:02:44;;;;;;;8.07;5.40;;;;;;;15.40;99.24;101272.00;5013677;28;20026;-74
2023/07/19 04:05:09;;;;;;;7.90;5.38;;;;;;;15.42;99.21;101270.06;5014871;28;20477;-74
2023/07/19 04:07:34;;;;;;;10.38;5.80;;;;;;;15.42;99.90;101267.41;5028886;28;20067;-74
2023/07/19 04:10:00;;;;;;;9.00;5.90;;;;;;;15.43;100.00;101268.25;5032773;28;20104;-74
2023/07/19 04:12:25;;;;;;;8.23;5.30;;;;;;;15.42;99.52;101270.06;5032147;28;20025;-74
2023/07/19 04:14:53;;;;;;;7.05;5.35;;;;;;;15.45;99.16;101266.31;5021174;28;20687;-74
2023/07/19 04:17:18;;;;;;;7.60;5.65;;;;;;;15.45;99.16;101263.66;5031518;28;20033;-74
2023/07/19 04:19:43;;;;;;;6.05;5.25;;;;;;;15.46;98.43;101265.31;5033008;28;20469;-75
2023/07/19 04:22:09;;;;;;;11.70;5.63;;;;;;;15.48;97.94;101261.56;5031872;28;20095;-74
2023/07/19 04:24:34;;;;;;;10.00;6.15;;;;;;;15.50;98.36;101269.38;5032881;28;20104;-73
2023/07/19 04:27:00;;;;;;;9.63;5.95;;;;;;;15.48;98.84;101264.22;5031488;28;20057;-73
2023/07/19 04:29:25;;;;;;;6.78;5.57;;;;;;;15.50;98.67;101266.72;5014902;28;20041;-74
2023/07/19 04:31:50;;;;;;;7.50;5.38;;;;;;;15.53;98.62;101259.34;5032771;28;20025;-74
2023/07/19 04:34:16;;;;;;;9.38;6.13;;;;;;;15.56;98.35;101267.03;5020361;28;20068;-74
2023/07/19 04:36:44;;;;;;;9.40;5.38;;;;;;;15.53;98.70;101261.16;5007513;28;20469;-74
2023/07/19 04:39:10;;;;;;;10.43;5.45;;;;;;;15.56;98.01;101263.53;5018084;28;20489;-74
2023/07/19 04:41:35;;;;;;;12.02;5.88;;;;;;;15.59;98.03;101273.91;5032898;28;20064;-75
2023/07/19 04:44:00;;;;;;;8.05;5.63;;;;;;;15.60;97.41;101267.63;5031791;28;20041;-74
2023/07/19 04:46:26;;;;;;;8.95;5.70;;;;;;;15.64;97.23;101275.19;5011766;28;20041;-75
2023/07/19 04:48:51;;;;;;;5.75;5.18;;;;;;;15.65;97.76;101270.72;5012431;28;20424;-75
2023/07/19 04:51:17;;;;;;;7.03;5.40;;;;;;;15.71;97.89;101272.00;5010893;28;20513;-75
2023/07/19 04:53:42;;;;;;;8.00;5.80;;;;;;;15.71;98.08;101274.66;4999971;28;20036;-75
2023/07/19 04:56:08;;;;;;;8.88;5.60;;;;;;;15.73;99.04;101283.31;5028236;28;20106;-75
2023/07/19 04:58:33;;;;;;;8.75;5.95;;;;;;;15.79;99.22;101277.47;5028767;28;20035;-75
2023/07/19 05:01:08;;;;;;;10.23;6.25;;;;;;;15.78;98.11;101283.75;5029115;28;20072;-75
2023/07/19 05:03:34;;;;;;;10.50;5.90;;;;;;;15.79;98.20;101286.25;5031379;28;20037;-74
2023/07/19 05:06:00;;;;;;;9.82;5.97;;;;;;;15.77;97.19;101285.56;5014117;28;20030;-75
2023/07/19 05:08:25;;;;;;;7.20;5.80;;;;;;;15.81;97.53;101281.66;5031077;28;20478;-74
2023/07/19 05:10:51;;;;;;;10.20;6.47;;;;;;;15.88;97.85;101276.63;5029967;28;20042;-75
2023/07/19 05:13:16;;;;;;;9.52;6.10;;;;;;;15.93;96.73;101275.25;5020248;28;20026;-75
2023/07/19 05:15:41;;;;;;;11.02;6.20;;;;;;;15.96;96.78;101282.94;4994584;28;20402;-75
2023/07/19 05:18:10;;;;;;;9.63;5.60;;;;;;;16.02;96.06;101284.22;5001707;28;20037;-75
2023/07/19 05:20:35;;;;;;;8.38;5.70;;;;;;;16.07;95.54;101273.19;5031695;28;20076;-74
2023/07/19 05:23:00;;;;;;;10.38;6.10;;;;;;;16.15;95.60;101286.59;5031159;28;20167;-76
2023/07/19 05:25:26;;;;;;;11.43;5.88;;;;;;;16.21;95.47;101280.72;5019688;28;20029;-75
2023/07/19 05:27:51;;;;;;;9.75;5.97;;;;;;;16.32;95.18;101269.97;5046571;28;20052;-75
2023/07/19 05:30:17;;;;;;;11.52;5.97;;;;;;;16.38;94.70;101274.69;5039467;28;20029;-74
2023/07/19 05:32:43;;;;;;;9.15;6.18;;;;;;;16.45;94.41;101275.00;5049456;28;20049;-75
2023/07/19 05:35:08;;;;;;;10.55;6.45;;;;;;;16.56;94.50;101277.50;5050031;28;20030;-75
2023/07/19 05:37:33;;;;;;;8.63;6.55;;;;;;;16.65;93.51;101276.66;5048731;28;20018;-74
2023/07/19 05:39:59;;;;;;;10.13;6.20;;;;;;;16.76;92.47;101276.50;5046536;28;20029;-76
2023/07/19 05:42:24;;;;;;;11.75;6.50;;;;;;;16.81;93.13;101271.63;5050231;28;20044;-76
2023/07/19 05:44:49;;;;;;;9.55;6.20;;;;;;;16.91;92.00;101271.59;5049344;28;20527;-73
2023/07/19 05:47:15;;;;;;;13.82;6.80;;;;;;;16.97;91.21;101264.88;5037935;28;20683;-75
2023/07/19 05:49:44;;;;;;;12.10;6.60;;;;;;;17.03;89.94;101274.91;5046314;28;20021;-75
2023/07/19 05:52:10;;;;;;;11.30;6.88;;;;;;;17.09;89.54;101272.50;5047360;28;20040;-75
2023/07/19 05:54:35;;;;;;;10.93;6.20;;;;;;;17.20;89.09;101274.16;5050069;28;20033;-75
2023/07/19 05:57:01;;;;;;;8.63;6.60;;;;;;;17.24;87.21;101272.91;5047455;28;20228;-75
2023/07/19 05:59:26;;;;;;;12.90;6.53;;;;;;;17.34;87.48;101278.16;5047394;28;20081;-75
2023/07/19 06:01:51;;;;;;;13.00;6.50;;;;;;;17.40;87.31;101274.91;5044637;28;20081;-75
2023/07/19 06:04:17;;;;;;;8.40;5.88;;;;;;;17.44;86.73;101274.47;5043028;28;20041;-75
2023/07/19 06:06:42;;;;;;;9.85;6.30;;;;;;;17.48;86.77;101281.16;5045145;28;20034;-76
2023/07/19 06:09:08;;;;;;;10.18;6.40;;;;;;;17.53;86.99;101275.41;5026717;28;20021;-75
2023/07/19 06:11:34;;;;;;;10.95;6.43;;;;;;;17.60;86.50;101275.66;5045621;28;20097;-75
2023/07/19 06:14:00;;;;;;;12.32;6.80;;;;;;;17.70;85.07;101273.81;5044019;28;20075;-75
2023/07/19 06:16:26;;;;;;;11.98;6.63;;;;;;;17.78;84.85;101281.88;5030427;28;20107;-75
2023/07/19 06:18:51;;;;;;;10.57;6.30;;;;;;;17.91;83.92;101269.03;5054557;28;20029;-75
2023/07/19 06:21:17;;;;;;;11.07;6.35;;;;;;;17.97;83.35;101271.09;5048670;28;20037;-75
2023/07/19 06:23:42;;;;;;;8.77;6.10;;;;;;;18.10;82.86;101276.06;5039109;28;20044;-75
2023/07/19 06:26:08;;;;;;;7.50;6.10;;;;;;;18.19;82.72;101264.50;5053065;28;20014;-74
2023/07/19 06:28:35;;;;;;;8.65;6.15;;;;;;;18.30;82.14;101263.44;5045052;28;20017;-74
2023/07/19 06:31:01;;;;;;;8.50;5.95;;;;;;;18.33;80.08;101263.13;5022913;28;20032;-75
2023/07/19 06:33:30;;;;;;;12.07;6.22;;;;;;;18.36;80.70;101260.97;5033762;28;20541;-75
2023/07/19 06:35:57;;;;;;;8.77;6.10;;;;;;;18.36;80.67;101258.31;5031071;28;20022;-75
2023/07/19 06:38:32;;;;;;;11.30;6.25;;;;;;;18.42;80.57;101265.72;5012628;28;20433;-76
2023/07/19 06:41:02;;;;;;;10.88;6.22;;;;;;;18.42;79.23;101264.88;5008113;28;20087;-75
2023/07/19 06:43:28;;;;;;;11.00;5.78;;;;;;;18.35;80.13;101267.31;5025481;28;20928;-74
2023/07/19 06:45:53;;;;;;;11.48;5.95;;;;;;;18.44;79.79;101270.91;5031592;28;20079;-75
2023/07/19 06:48:19;;;;;;;10.60;5.78;;;;;;;18.48;79.64;101264.25;5026267;28;20465;-76
2023/07/19 06:50:44;;;;;;;12.15;6.40;;;;;;;18.52;80.13;101265.63;5028979;28;20124;-77
2023/07/19 06:53:10;;;;;;;10.18;5.90;;;;;;;18.53;80.26;101267.28;5028656;28;20028;-77
2023/07/19 06:55:36;;;;;;;10.25;6.13;;;;;;;18.62;79.94;101274.38;5027354;28;20030;-77
2023/07/19 06:58:02;;;;;;;8.98;5.20;;;;;;;18.70;79.84;101273.59;5030301;28;20029;-76
2023/07/19 07:00:27;;;;;;;10.55;5.97;;;;;;;18.83;80.53;101260.72;5030954;28;20148;-77
2023/07/19 07:02:52;;;;;;;10.70;5.90;;;;;;;18.99;79.37;101268.81;5031052;28;20017;-77
2023/07/19 07:05:18;;;;;;;10.52;6.30;;;;;;;19.13;79.32;101270.03;5012943;28;20104;-77
2023/07/19 07:07:43;;;;;;;8.82;6.13;;;;;;;19.31;78.77;101268.16;5028941;28;20029;-76
2023/07/19 07:10:09;;;;;;;14.20;5.70;;;;;;;19.48;76.50;101273.53;5026525;28;20117;-78
2023/07/19 07:12:36;;;;;;;8.27;5.25;;;;;;;19.54;76.87;101276.44;5011926;28;20156;-75
2023/07/19 07:15:04;;;;;;;12.55;5.25;;;;;;;19.61;75.93;101273.94;5031226;28;20025;-76
2023/07/19 07:17:30;;;;;;;7.75;4.80;;;;;;;19.70;75.55;101275.66;5012228;28;20143;-74
2023/07/19 07:19:55;;;;;;;9.70;4.60;;;;;;;19.78;74.30;101280.19;5012637;28;20191;-74
2023/07/19 07:22:21;;;;;;;9.77;4.55;;;;;;;19.82;73.47;101284.22;5012956;28;20422;-75
2023/07/19 07:24:46;;;;;;;12.70;5.45;;;;;;;19.89;73.32;101278.03;5029215;28;20037;-76
2023/07/19 07:27:12;;;;;;;11.35;4.88;;;;;;;19.95;74.01;101276.56;5027567;28;20033;-75
2023/07/19 07:29:41;;;;;;;8.57;4.90;;;;;;;20.01;73.53;101268.75;5030198;28;20394;-75
2023/07/19 07:32:13;;;;;;;10.82;4.35;;;;;;;20.05;73.30;101271.09;5010852;28;20033;-74
2023/07/19 07:34:39;;;;;;;9.50;4.40;;;;;;;20.18;72.58;101274.94;5028600;28;20026;-75
2023/07/19 07:37:05;;;;;;;8.50;4.18;;;;;;;20.22;72.83;101267.41;5027595;28;20025;-73
2023/07/19 07:39:31;;;;;;;7.35;4.28;;;;;;;20.27;72.23;101260.56;5027564;28;20425;-74
2023/07/19 07:41:56;;;;;;;13.23;4.00;;;;;;;20.43;70.79;101257.13;5024115;28;20033;-74
2023/07/19 07:44:21;;;;;;;10.55;3.90;;;;;;;20.47;70.01;101265.63;5019801;28;20029;-74
2023/07/19 07:46:49;;;;;;;11.30;4.20;;;;;;;20.43;70.11;101270.47;5029033;28;20021;-74
2023/07/19 07:49:17;;;;;;;14.27;4.63;;;;;;;20.31;71.01;101261.06;5028369;28;20068;-74
2023/07/19 07:51:42;;;;;;;8.45;3.60;;;;;;;20.25;71.36;101261.75;5028342;28;20235;-74
2023/07/19 07:54:08;;;;;;;11.35;4.25;;;;;;;20.30;71.11;101257.56;5027978;28;20390;-74
2023/07/19 07:56:33;;;;;;;6.68;3.75;;;;;;;20.30;69.60;101262.91;5025971;28;20033;-74
2023/07/19 07:59:08;;;;;;;7.93;3.40;;;;;;;20.46;70.10;101267.47;5026858;28;20021;-74
2023/07/19 08:01:33;;;;;;;7.20;3.42;;;;;;;20.77;67.04;101272.09;5007989;28;20050;-74
2023/07/19 08:03:59;;;;;;;6.13;2.75;;;;;;;20.77;66.28;101261.41;5006270;28;20026;-74
2023/07/19 08:06:24;;;;;;;7.00;2.70;;;;;;;20.67;64.63;101255.41;5008700;28;20553;-73
2023/07/19 08:08:49;;;;;;;7.53;2.88;;;;;;;20.63;65.45;101265.59;5009255;28;20037;-75
2023/07/19 08:11:15;;;;;;;8.60;4.10;;;;;;;20.77;66.03;101259.56;5008645;28;20033;-75
2023/07/19 08:13:40;;;;;;;9.48;4.90;;;;;;;21.19;65.63;101253.94;4990023;28;20026;-74
2023/07/19 08:16:06;;;;;;;9.68;4.88;;;;;;;21.55;65.49;101257.00;4989753;28;20018;-75
2023/07/19 08:18:34;;;;;;;9.43;3.92;;;;;;;21.97;62.78;101239.69;5008732;28;20037;-75
2023/07/19 08:21:00;;;;;;;11.30;4.43;;;;;;;22.24;61.00;101232.97;5008761;28;20374;-74
2023/07/19 08:23:25;;;;;;;7.50;3.97;;;;;;;22.55;59.91;101240.09;5007682;28;20033;-75
2023/07/19 08:25:57;;;;;;;7.38;2.95;;;;;;;22.59;58.68;101241.41;5012967;28;20139;-74
2023/07/19 08:28:24;;;;;;;8.73;2.85;;;;;;;22.58;57.81;101243.25;5013142;28;20018;-74
2023/07/19 08:30:51;;;;;;;4.65;2.22;;;;;;;22.45;57.52;101240.34;4996059;28;20153;-74
2023/07/19 08:33:16;;;;;;;7.13;2.60;;;;;;;22.33;57.57;101234.56;5012530;28;20026;-75
2023/07/19 08:35:42;;;;;;;6.05;2.55;;;;;;;22.22;57.96;101234.19;5001326;28;20668;-74
2023/07/19 08:38:07;;;;;;;7.50;2.88;;;;;;;21.96;59.90;101247.91;5013797;28;20037;-75
2023/07/19 08:40:38;;;;;;;5.65;2.88;;;;;;;21.75;61.69;101252.06;5033028;28;20017;-75
2023/07/19 08:43:07;;;;;;;7.75;3.20;;;;;;;21.68;62.76;101251.09;5032333;28;20030;-75
2023/07/19 08:45:37;;;;;;;7.72;3.70;;;;;;;21.68;63.05;101251.09;5032998;28;20025;-75
2023/07/19 08:48:04;;;;;;;11.55;3.35;;;;;;;21.92;61.72;101239.38;5014728;28;20385;-75
2023/07/19 08:50:29;;;;;;;7.53;2.97;;;;;;;22.15;60.42;101242.94;5023014;28;20141;-74
2023/07/19 08:53:01;;;;;;;9.95;3.00;;;;;;;22.15;59.67;101247.47;5016858;28;20120;-75
2023/07/19 08:55:26;;;;;;;8.77;3.20;;;;;;;22.04;59.53;101245.22;5009892;28;20026;-74
2023/07/19 08:57:51;;;;;;;10.93;3.47;;;;;;;22.03;58.58;101247.06;5019433;28;20048;-74
2023/07/19 09:00:17;;;;;;;8.48;2.95;;;;;;;22.12;58.72;101242.47;5014828;28;20127;-75
2023/07/19 09:02:43;;;;;;;9.10;3.20;;;;;;;22.37;59.16;101237.72;5020809;28;20140;-74
2023/07/19 09:05:13;;;;;;;9.07;3.40;;;;;;;22.68;58.24;101243.81;5012386;28;20034;-75
2023/07/19 09:07:39;;;;;;;5.88;3.10;;;;;;;23.04;58.14;101243.97;4984085;28;20046;-75
2023/07/19 09:10:10;;;;;;;9.57;3.28;;;;;;;23.07;57.22;101240.91;4990532;28;20390;-75
2023/07/19 09:12:40;;;;;;;6.97;2.78;;;;;;;23.25;58.94;101240.53;5016390;28;20033;-74
2023/07/19 09:15:07;;;;;;;8.18;3.05;;;;;;;23.37;57.75;101259.69;5016779;28;20025;-74
2023/07/19 09:17:40;;;;;;;8.63;3.30;;;;;;;23.08;58.23;101250.63;5005401;28;20046;-75
2023/07/19 09:20:09;;;;;;;8.77;2.92;;;;;;;22.94;58.99;101242.59;5010335;28;20022;-75
2023/07/19 09:22:36;;;;;;;10.68;3.65;;;;;;;22.94;57.93;101243.41;5010551;28;20076;-75
2023/07/19 09:25:03;;;;;;;7.32;3.22;;;;;;;22.92;57.63;101242.78;5027482;28;20147;-75
2023/07/19 09:27:30;;;;;;;8.30;3.30;;;;;;;23.02;58.06;101242.50;5005037;28;20474;-75
2023/07/19 09:29:55;;;;;;;5.70;2.90;;;;;;;22.96;56.73;101230.66;5012332;28;20025;-75
2023/07/19 09:32:22;;;;;;;6.63;2.83;;;;;;;22.97;56.99;101236.84;5015086;28;20033;-75
2023/07/19 09:34:52;;;;;;;8.07;2.63;;;;;;;23.24;57.39;101238.06;5014350;28;20022;-75
2023/07/19 09:37:20;;;;;;;7.53;2.67;;;;;;;23.44;56.27;101236.44;5011675;28;20033;-75
2023/07/19 09:39:46;;;;;;;5.80;2.30;;;;;;;23.52;56.20;101236.31;5000423;28;20030;-74
2023/07/19 09:42:13;;;;;;;5.15;2.60;;;;;;;23.59;56.60;101242.63;5023805;28;20538;-74
2023/07/19 09:44:39;;;;;;;7.95;2.45;;;;;;;23.47;55.73;101240.59;4990536;28;20032;-74
2023/07/19 09:47:09;;;;;;;8.27;2.95;;;;;;;23.16;56.56;101240.81;5020808;28;20494;-75
2023/07/19 09:49:36;;;;;;;5.93;3.28;;;;;;;23.18;57.30;101236.09;4995064;28;20514;-75
2023/07/19 09:52:03;;;;;;;6.22;2.65;;;;;;;23.14;58.41;101236.47;5016481;28;20029;-75
2023/07/19 09:54:30;;;;;;;8.13;2.63;;;;;;;23.01;57.79;101241.66;5019957;28;20032;-75
2023/07/19 09:56:56;;;;;;;6.03;2.50;;;;;;;22.92;58.60;101233.88;5007421;28;20029;-73
2023/07/19 09:59:37;;;;;;;8.80;2.78;;;;;;;22.89;58.79;101235.09;5011064;28;20037;-75
2023/07/19 10:02:02;;;;;;;5.05;2.45;;;;;;;22.84;58.39;101237.50;5032005;28;20131;-76
2023/07/19 10:04:37;;;;;;;9.13;2.22;;;;;;;22.94;59.27;101237.22;5040943;28;20166;-75
2023/07/19 10:07:11;;;;;;;6.72;2.25;;;;;;;23.04;59.11;101243.13;5026959;28;20029;-75
2023/07/19 10:09:43;;;;;;;5.95;2.20;;;;;;;23.11;57.12;101242.19;5033295;28;20025;-74
2023/07/19 10:12:17;;;;;;;8.30;2.30;;;;;;;23.10;57.68;101245.91;5029621;28;20029;-74
2023/07/19 10:15:06;;;;;;;5.18;2.17;;;;;;;23.08;58.01;101242.56;5046034;28;20072;-74
2023/07/19 10:17:56;;;;;;;6.18;1.88;;;;;;;22.93;57.80;101239.06;5014792;28;20544;-74
2023/07/19 10:20:28;;;;;;;8.30;2.50;;;;;;;22.79;57.72;101242.53;5019115;28;20025;-74
2023/07/19 10:23:01;;;;;;;5.28;2.08;;;;;;;22.98;58.26;101236.66;5030124;28;20061;-74
2023/07/19 10:25:29;;;;;;;6.25;2.10;;;;;;;22.88;56.24;101235.28;5043037;28;20025;-73
2023/07/19 10:28:00;;;;;;;4.60;1.98;;;;;;;22.89;56.51;101250.34;5005633;28;20028;-75
2023/07/19 10:30:44;;;;;;;7.18;1.90;;;;;;;23.06;57.11;101241.09;5003745;28;20033;-75
2023/07/19 10:33:14;;;;;;;6.03;1.98;;;;;;;23.09;55.68;101238.88;5032628;28;20057;-75
2023/07/19 10:35:40;;;;;;;3.30;1.58;;;;;;;23.38;55.44;101237.19;5017967;28;20024;-75
2023/07/19 10:38:25;;;;;;;5.95;1.55;;;;;;;23.52;54.43;101230.94;5050413;28;20021;-74
2023/07/19 10:41:02;;;;;;;3.40;1.70;;;;;;;23.43;53.50;101238.28;5050574;28;20032;-74
2023/07/19 10:43:30;;;;;;;5.18;1.85;;;;;;;23.28;53.38;101244.72;5049444;28;20091;-74
2023/07/19 10:45:56;;;;;;;4.47;1.67;;;;;;;23.17;54.01;101237.09;5050218;28;20108;-75
2023/07/19 10:48:25;;;;;;;4.38;1.65;;;;;;;23.05;54.70;101240.25;5036964;28;20104;-74
2023/07/19 10:50:50;;;;;;;5.93;1.48;;;;;;;23.09;55.22;101233.50;5019652;28;20060;-74
2023/07/19 10:53:16;;;;;;;4.72;1.58;;;;;;;23.53;56.95;101232.59;5027998;28;20112;-75
2023/07/19 10:55:45;;;;;;;5.18;1.80;;;;;;;23.81;55.59;101235.44;5010063;28;20112;-75
2023/07/19 10:58:14;;;;;;;5.18;1.63;;;;;;;23.72;54.77;101221.31;5042276;28;20026;-74
2023/07/19 11:00:43;;;;;;;5.50;1.75;;;;;;;23.69;54.24;101231.59;5010368;28;20049;-74
2023/07/19 11:03:12;;;;;;;3.83;1.60;;;;;;;23.39;56.52;101246.91;5027897;28;20025;-76
2023/07/19 11:05:46;;;;;;;5.90;2.10;;;;;;;22.86;64.92;101246.19;5021949;28;20088;-76
2023/07/19 11:08:21;;;;;;;6.60;2.08;;;;;;;22.57;68.13;101236.22;5011969;28;20441;-74
2023/07/19 11:10:48;;;;;;;5.30;1.80;;;;;;;22.78;70.56;101233.63;5027363;28;20045;-75
2023/07/19 11:13:15;;;;;;;5.05;2.00;;;;;;;23.26;72.56;101239.53;5036676;28;20029;-74
2023/07/19 11:15:42;;;;;;;4.38;1.70;;;;;;;23.63;68.40;101233.19;5042480;28;20486;-74
2023/07/19 11:18:08;;;;;;;4.20;1.70;;;;;;;23.57;66.76;101228.56;5037879;28;20437;-74
2023/07/19 11:20:36;;;;;;;4.60;1.63;;;;;;;23.53;64.82;101232.59;5039373;28;20017;-74
2023/07/19 11:23:07;;;;;;;4.68;1.60;;;;;;;23.61;62.21;101235.22;5019067;28;20037;-74